Thunder — ERRG — position and weather

sailwx.info

Track history (hours):
 
Tides and Currents Weather Stations Pressure Air Temp Water Temp Dewpoint Dewpoint Depression Visibility Wind Speed Wind Dir Waves Ship Positions

Thunder

Last reported at 2018-Jun-22 18:25 UTC. Time now 2018-Jun-22 18:52 UTC.
Position N 35°53' E 014°31'.

Length 83 m; draft 3.7 m.

Type: Cargo ship. MMSI: 214181807.

Date/timePositionNaut miles runAvg speedWind from/ knotsBaromVisibWave heightAir tempDewpointWater temp
2018-Jun-22 18:25N 35°53' E 014°31'0 0.0
2018-Jun-22 17:55N 35°53' E 014°31'0 0.0
2018-Jun-22 17:25N 35°53' E 014°31'6 0.2
2018-Jun-21 07:55N 35°58' E 014°35'114 6.9
2018-Jun-20 15:29N 37°43' E 015°30'4 7.4
2018-Jun-20 14:57N 37°47' E 015°30'4 7.3
2018-Jun-20 14:23N 37°51' E 015°30'3 7.4
2018-Jun-20 13:57N 37°54' E 015°30'7 7.1
2018-Jun-20 13:00N 38°01' E 015°30'4 7.1
2018-Jun-20 12:31N 38°04' E 015°32'3 6.2
2018-Jun-20 11:59N 38°07' E 015°33'3 5.8
2018-Jun-20 11:31N 38°10' E 015°34'4 7.0
2018-Jun-20 11:00N 38°13' E 015°36'3 6.2
2018-Jun-20 10:30N 38°15' E 015°38'3 6.1
2018-Jun-20 09:59N 38°18' E 015°40'4 7.3
2018-Jun-20 09:30N 38°22' E 015°38'3 6.9
2018-Jun-20 09:00N 38°25' E 015°36'5 6.8
2018-Jun-20 08:18N 38°29' E 015°34'113 6.7
2018-Jun-19 15:28N 40°15' E 014°44'3 5.9
2018-Jun-19 14:55N 40°18' E 014°44'3 5.9
2018-Jun-19 14:29N 40°21' E 014°44'4 6.1
2018-Jun-19 13:52N 40°25' E 014°45'2 6.2
2018-Jun-19 13:29N 40°27' E 014°45'3 6.3
2018-Jun-19 12:59N 40°30' E 014°45'4 6.3
2018-Jun-19 12:24N 40°34' E 014°45'2 0.0
2018-Jun-17 13:53N 40°36' E 014°45'3 7.3
2018-Jun-17 13:27N 40°32' E 014°45'3 7.1
2018-Jun-17 13:00N 40°29' E 014°45'3 6.8
2018-Jun-17 12:30N 40°26' E 014°45'3 6.8
2018-Jun-17 11:59N 40°22' E 014°45'3 6.9
2018-Jun-17 11:29N 40°19' E 014°44'126 6.8
2018-Jun-16 16:50N 38°20' E 015°41'3 6.6
2018-Jun-16 16:23N 38°18' E 015°42'3 6.9
2018-Jun-16 16:00N 38°15' E 015°41'4 7.3
2018-Jun-16 15:30N 38°13' E 015°37'3 6.6
2018-Jun-16 15:00N 38°10' E 015°37'2 4.4
2018-Jun-16 14:30N 38°08' E 015°37'2 4.6
2018-Jun-16 14:00N 38°05' E 015°37'2 4.4
2018-Jun-16 13:30N 38°03' E 015°37'4 7.0
2018-Jun-16 13:00N 37°60' E 015°37'3 6.9
2018-Jun-16 12:30N 37°57' E 015°40'3 6.9
2018-Jun-16 12:00N 37°55' E 015°43'4 7.2
2018-Jun-16 11:30N 37°54' E 015°48'  
Track history (hours):
 
Tides and Currents Weather Stations Pressure Air Temp Water Temp Dewpoint Dewpoint Depression Visibility Wind Speed Wind Dir Waves Ship Positions

Thunder

Last reported at 2018-Jun-22 18:25 UTC. Time now 2018-Jun-22 18:52 UTC.
Position N 35°53' E 014°31'.

Length 83 m; draft 3.7 m.

Type: Cargo ship. MMSI: 214181807.

Date/timePositionNaut miles runAvg speedWind from/ knotsBaromVisibWave heightAir tempDewpointWater temp
2018-Jun-22 18:25N 35°53' E 014°31'0 0.0
2018-Jun-22 17:55N 35°53' E 014°31'0 0.0
2018-Jun-22 17:25N 35°53' E 014°31'6 0.2
2018-Jun-21 07:55N 35°58' E 014°35'114 6.9
2018-Jun-20 15:29N 37°43' E 015°30'4 7.4
2018-Jun-20 14:57N 37°47' E 015°30'4 7.3
2018-Jun-20 14:23N 37°51' E 015°30'3 7.4
2018-Jun-20 13:57N 37°54' E 015°30'7 7.1
2018-Jun-20 13:00N 38°01' E 015°30'4 7.1
2018-Jun-20 12:31N 38°04' E 015°32'3 6.2
2018-Jun-20 11:59N 38°07' E 015°33'3 5.8
2018-Jun-20 11:31N 38°10' E 015°34'4 7.0
2018-Jun-20 11:00N 38°13' E 015°36'3 6.2
2018-Jun-20 10:30N 38°15' E 015°38'3 6.1
2018-Jun-20 09:59N 38°18' E 015°40'4 7.3
2018-Jun-20 09:30N 38°22' E 015°38'3 6.9
2018-Jun-20 09:00N 38°25' E 015°36'5 6.8
2018-Jun-20 08:18N 38°29' E 015°34'113 6.7
2018-Jun-19 15:28N 40°15' E 014°44'3 5.9
2018-Jun-19 14:55N 40°18' E 014°44'3 5.9
2018-Jun-19 14:29N 40°21' E 014°44'4 6.1
2018-Jun-19 13:52N 40°25' E 014°45'2 6.2
2018-Jun-19 13:29N 40°27' E 014°45'3 6.3
2018-Jun-19 12:59N 40°30' E 014°45'4 6.3
2018-Jun-19 12:24N 40°34' E 014°45'2 0.0
2018-Jun-17 13:53N 40°36' E 014°45'3 7.3
2018-Jun-17 13:27N 40°32' E 014°45'3 7.1
2018-Jun-17 13:00N 40°29' E 014°45'3 6.8
2018-Jun-17 12:30N 40°26' E 014°45'3 6.8
2018-Jun-17 11:59N 40°22' E 014°45'3 6.9
2018-Jun-17 11:29N 40°19' E 014°44'126 6.8
2018-Jun-16 16:50N 38°20' E 015°41'3 6.6
2018-Jun-16 16:23N 38°18' E 015°42'3 6.9
2018-Jun-16 16:00N 38°15' E 015°41'4 7.3
2018-Jun-16 15:30N 38°13' E 015°37'3 6.6
2018-Jun-16 15:00N 38°10' E 015°37'2 4.4
2018-Jun-16 14:30N 38°08' E 015°37'2 4.6
2018-Jun-16 14:00N 38°05' E 015°37'2 4.4
2018-Jun-16 13:30N 38°03' E 015°37'4 7.0
2018-Jun-16 13:00N 37°60' E 015°37'3 6.9
2018-Jun-16 12:30N 37°57' E 015°40'3 6.9
2018-Jun-16 12:00N 37°55' E 015°43'4 7.2
2018-Jun-16 11:30N 37°54' E 015°48'  

Dump ship's entire track history